sensor_id;sensor_type;location;lat;lon;timestamp;P1;durP1;ratioP1;P2;durP2;ratioP2
8626;SDS011;4351;51.422;6.794;2023-09-07T00:02:07;5.17;;;3.70;;
8626;SDS011;4351;51.422;6.794;2023-09-07T00:04:44;5.07;;;3.60;;
8626;SDS011;4351;51.422;6.794;2023-09-07T00:07:17;5.20;;;3.43;;
8626;SDS011;4351;51.422;6.794;2023-09-07T00:10:02;5.30;;;3.80;;
8626;SDS011;4351;51.422;6.794;2023-09-07T00:12:48;4.47;;;3.60;;
8626;SDS011;4351;51.422;6.794;2023-09-07T00:15:35;6.67;;;4.03;;
8626;SDS011;4351;51.422;6.794;2023-09-07T00:18:19;6.33;;;3.47;;
8626;SDS011;4351;51.422;6.794;2023-09-07T00:21:04;5.93;;;4.27;;
8626;SDS011;4351;51.422;6.794;2023-09-07T00:23:48;7.97;;;4.07;;
8626;SDS011;4351;51.422;6.794;2023-09-07T00:26:35;5.40;;;3.60;;
8626;SDS011;4351;51.422;6.794;2023-09-07T00:29:10;4.83;;;3.97;;
8626;SDS011;4351;51.422;6.794;2023-09-07T00:31:40;5.23;;;3.57;;
8626;SDS011;4351;51.422;6.794;2023-09-07T00:34:10;5.90;;;3.97;;
8626;SDS011;4351;51.422;6.794;2023-09-07T00:36:49;7.43;;;3.90;;
8626;SDS011;4351;51.422;6.794;2023-09-07T00:39:28;5.43;;;3.87;;
8626;SDS011;4351;51.422;6.794;2023-09-07T00:42:03;6.53;;;3.87;;
8626;SDS011;4351;51.422;6.794;2023-09-07T00:44:41;5.23;;;4.00;;
8626;SDS011;4351;51.422;6.794;2023-09-07T00:47:15;7.17;;;3.50;;
8626;SDS011;4351;51.422;6.794;2023-09-07T00:49:54;3.70;;;3.40;;
8626;SDS011;4351;51.422;6.794;2023-09-07T00:52:30;6.70;;;3.50;;
8626;SDS011;4351;51.422;6.794;2023-09-07T00:55:15;5.23;;;3.60;;
8626;SDS011;4351;51.422;6.794;2023-09-07T00:57:58;4.37;;;3.63;;
8626;SDS011;4351;51.422;6.794;2023-09-07T01:00:45;6.77;;;3.70;;
8626;SDS011;4351;51.422;6.794;2023-09-07T01:03:33;5.77;;;3.70;;
8626;SDS011;4351;51.422;6.794;2023-09-07T01:06:13;4.13;;;3.50;;
8626;SDS011;4351;51.422;6.794;2023-09-07T01:08:49;7.83;;;3.43;;
8626;SDS011;4351;51.422;6.794;2023-09-07T01:11:35;4.73;;;3.20;;
8626;SDS011;4351;51.422;6.794;2023-09-07T01:14:24;4.70;;;3.20;;
8626;SDS011;4351;51.422;6.794;2023-09-07T01:17:04;5.53;;;3.30;;
8626;SDS011;4351;51.422;6.794;2023-09-07T01:27:50;4.37;;;3.60;;
8626;SDS011;4351;51.422;6.794;2023-09-07T01:30:26;6.17;;;3.23;;
8626;SDS011;4351;51.422;6.794;2023-09-07T01:33:07;5.37;;;3.17;;
8626;SDS011;4351;51.422;6.794;2023-09-07T01:35:51;5.60;;;3.70;;
8626;SDS011;4351;51.422;6.794;2023-09-07T01:38:37;5.43;;;3.60;;
8626;SDS011;4351;51.422;6.794;2023-09-07T01:41:12;5.47;;;3.73;;
8626;SDS011;4351;51.422;6.794;2023-09-07T01:43:49;6.03;;;3.80;;
8626;SDS011;4351;51.422;6.794;2023-09-07T01:46:28;4.57;;;3.60;;
8626;SDS011;4351;51.422;6.794;2023-09-07T01:49:05;4.97;;;3.53;;
8626;SDS011;4351;51.422;6.794;2023-09-07T01:51:50;5.13;;;3.67;;
8626;SDS011;4351;51.422;6.794;2023-09-07T01:54:35;4.00;;;3.60;;
8626;SDS011;4351;51.422;6.794;2023-09-07T01:57:17;5.10;;;3.60;;
8626;SDS011;4351;51.422;6.794;2023-09-07T02:00:07;4.83;;;3.60;;
8626;SDS011;4351;51.422;6.794;2023-09-07T02:02:40;5.20;;;3.20;;
8626;SDS011;4351;51.422;6.794;2023-09-07T02:05:08;5.53;;;3.80;;
8626;SDS011;4351;51.422;6.794;2023-09-07T02:07:39;5.53;;;3.40;;
8626;SDS011;4351;51.422;6.794;2023-09-07T02:10:14;4.10;;;3.60;;
8626;SDS011;4351;51.422;6.794;2023-09-07T02:13:02;4.53;;;3.90;;
8626;SDS011;4351;51.422;6.794;2023-09-07T02:15:43;4.40;;;3.60;;
8626;SDS011;4351;51.422;6.794;2023-09-07T02:18:22;6.90;;;3.95;;
8626;SDS011;4351;51.422;6.794;2023-09-07T02:21:03;3.97;;;3.57;;
8626;SDS011;4351;51.422;6.794;2023-09-07T02:23:50;5.53;;;4.00;;
8626;SDS011;4351;51.422;6.794;2023-09-07T02:26:26;5.20;;;4.03;;
8626;SDS011;4351;51.422;6.794;2023-09-07T02:29:07;6.47;;;3.43;;
8626;SDS011;4351;51.422;6.794;2023-09-07T02:31:46;4.07;;;3.63;;
8626;SDS011;4351;51.422;6.794;2023-09-07T02:34:27;5.60;;;3.70;;
8626;SDS011;4351;51.422;6.794;2023-09-07T02:37:09;5.03;;;3.87;;
8626;SDS011;4351;51.422;6.794;2023-09-07T02:39:53;5.63;;;3.80;;
8626;SDS011;4351;51.422;6.794;2023-09-07T02:42:41;5.93;;;3.33;;
8626;SDS011;4351;51.422;6.794;2023-09-07T02:45:26;4.80;;;4.00;;
8626;SDS011;4351;51.422;6.794;2023-09-07T02:48:07;6.90;;;3.70;;
8626;SDS011;4351;51.422;6.794;2023-09-07T02:53:35;6.40;;;4.10;;
8626;SDS011;4351;51.422;6.794;2023-09-07T02:59:00;5.60;;;3.80;;
8626;SDS011;4351;51.422;6.794;2023-09-07T03:01:46;4.95;;;3.75;;
8626;SDS011;4351;51.422;6.794;2023-09-07T03:04:21;5.00;;;3.80;;
8626;SDS011;4351;51.422;6.794;2023-09-07T03:07:01;4.00;;;3.53;;
8626;SDS011;4351;51.422;6.794;2023-09-07T03:09:45;6.40;;;3.90;;
8626;SDS011;4351;51.422;6.794;2023-09-07T03:12:29;4.10;;;3.70;;
8626;SDS011;4351;51.422;6.794;2023-09-07T03:15:05;4.60;;;4.00;;
8626;SDS011;4351;51.422;6.794;2023-09-07T03:17:41;5.20;;;3.85;;
8626;SDS011;4351;51.422;6.794;2023-09-07T03:23:00;6.20;;;4.53;;
8626;SDS011;4351;51.422;6.794;2023-09-07T03:25:40;4.30;;;3.90;;
8626;SDS011;4351;51.422;6.794;2023-09-07T03:28:16;5.23;;;4.40;;
8626;SDS011;4351;51.422;6.794;2023-09-07T03:30:46;7.20;;;4.40;;
8626;SDS011;4351;51.422;6.794;2023-09-07T03:33:15;5.10;;;3.90;;
8626;SDS011;4351;51.422;6.794;2023-09-07T03:35:53;6.40;;;3.65;;
8626;SDS011;4351;51.422;6.794;2023-09-07T03:38:40;7.50;;;4.20;;
8626;SDS011;4351;51.422;6.794;2023-09-07T03:41:20;4.20;;;3.80;;
8626;SDS011;4351;51.422;6.794;2023-09-07T03:43:52;6.50;;;4.35;;
8626;SDS011;4351;51.422;6.794;2023-09-07T03:46:22;5.65;;;4.20;;
8626;SDS011;4351;51.422;6.794;2023-09-07T03:57:17;6.65;;;4.25;;
8626;SDS011;4351;51.422;6.794;2023-09-07T03:59:57;6.50;;;4.70;;
8626;SDS011;4351;51.422;6.794;2023-09-07T04:02:41;6.20;;;4.40;;
8626;SDS011;4351;51.422;6.794;2023-09-07T04:05:21;5.30;;;4.20;;
8626;SDS011;4351;51.422;6.794;2023-09-07T04:07:57;5.03;;;4.20;;
8626;SDS011;4351;51.422;6.794;2023-09-07T04:10:38;6.00;;;4.20;;
8626;SDS011;4351;51.422;6.794;2023-09-07T04:16:01;5.20;;;4.30;;
8626;SDS011;4351;51.422;6.794;2023-09-07T04:18:41;4.65;;;3.90;;
8626;SDS011;4351;51.422;6.794;2023-09-07T04:21:23;4.70;;;4.20;;
8626;SDS011;4351;51.422;6.794;2023-09-07T04:24:07;4.97;;;4.07;;
8626;SDS011;4351;51.422;6.794;2023-09-07T04:29:34;6.23;;;4.77;;
8626;SDS011;4351;51.422;6.794;2023-09-07T04:35:01;8.10;;;4.70;;
8626;SDS011;4351;51.422;6.794;2023-09-07T04:37:38;6.15;;;4.40;;
8626;SDS011;4351;51.422;6.794;2023-09-07T04:40:27;5.40;;;4.40;;
8626;SDS011;4351;51.422;6.794;2023-09-07T04:43:03;7.35;;;4.55;;
8626;SDS011;4351;51.422;6.794;2023-09-07T04:45:47;4.40;;;3.90;;
8626;SDS011;4351;51.422;6.794;2023-09-07T04:48:31;6.70;;;4.65;;
8626;SDS011;4351;51.422;6.794;2023-09-07T04:51:14;8.05;;;4.90;;
8626;SDS011;4351;51.422;6.794;2023-09-07T04:53:57;6.95;;;4.90;;
8626;SDS011;4351;51.422;6.794;2023-09-07T04:59:25;6.80;;;4.80;;
8626;SDS011;4351;51.422;6.794;2023-09-07T05:02:03;7.10;;;4.70;;
8626;SDS011;4351;51.422;6.794;2023-09-07T05:04:33;7.00;;;4.80;;
8626;SDS011;4351;51.422;6.794;2023-09-07T05:07:09;6.30;;;4.55;;
8626;SDS011;4351;51.422;6.794;2023-09-07T05:12:17;6.40;;;4.90;;
8626;SDS011;4351;51.422;6.794;2023-09-07T05:15:01;6.20;;;4.40;;
8626;SDS011;4351;51.422;6.794;2023-09-07T05:17:35;7.87;;;4.63;;
8626;SDS011;4351;51.422;6.794;2023-09-07T05:20:19;6.00;;;5.00;;
8626;SDS011;4351;51.422;6.794;2023-09-07T05:23:01;7.85;;;4.90;;
8626;SDS011;4351;51.422;6.794;2023-09-07T05:25:49;6.50;;;5.00;;
8626;SDS011;4351;51.422;6.794;2023-09-07T05:28:31;7.75;;;4.70;;
8626;SDS011;4351;51.422;6.794;2023-09-07T05:31:02;7.53;;;4.70;;
8626;SDS011;4351;51.422;6.794;2023-09-07T05:33:42;5.87;;;4.53;;
8626;SDS011;4351;51.422;6.794;2023-09-07T05:36:21;8.95;;;4.65;;
8626;SDS011;4351;51.422;6.794;2023-09-07T05:39:01;7.23;;;4.80;;
8626;SDS011;4351;51.422;6.794;2023-09-07T05:57:45;7.45;;;4.80;;
8626;SDS011;4351;51.422;6.794;2023-09-07T06:00:26;7.20;;;4.70;;
8626;SDS011;4351;51.422;6.794;2023-09-07T06:02:59;7.55;;;4.80;;
8626;SDS011;4351;51.422;6.794;2023-09-07T06:05:34;6.80;;;4.20;;
8626;SDS011;4351;51.422;6.794;2023-09-07T06:08:19;6.90;;;4.50;;
8626;SDS011;4351;51.422;6.794;2023-09-07T06:13:34;6.75;;;4.60;;
8626;SDS011;4351;51.422;6.794;2023-09-07T06:16:16;9.30;;;4.70;;
8626;SDS011;4351;51.422;6.794;2023-09-07T06:18:50;6.60;;;4.40;;
8626;SDS011;4351;51.422;6.794;2023-09-07T06:21:26;5.13;;;4.00;;
8626;SDS011;4351;51.422;6.794;2023-09-07T06:24:05;5.20;;;4.30;;
8626;SDS011;4351;51.422;6.794;2023-09-07T06:26:46;7.13;;;3.90;;
8626;SDS011;4351;51.422;6.794;2023-09-07T06:29:26;5.27;;;3.90;;
8626;SDS011;4351;51.422;6.794;2023-09-07T06:31:55;5.07;;;3.70;;
8626;SDS011;4351;51.422;6.794;2023-09-07T06:34:24;6.83;;;4.40;;
8626;SDS011;4351;51.422;6.794;2023-09-07T06:36:54;5.23;;;3.90;;
8626;SDS011;4351;51.422;6.794;2023-09-07T06:42:11;5.30;;;4.05;;
8626;SDS011;4351;51.422;6.794;2023-09-07T06:45:06;5.80;;;4.50;;
8626;SDS011;4351;51.422;6.794;2023-09-07T06:56:07;5.00;;;4.10;;
8626;SDS011;4351;51.422;6.794;2023-09-07T06:58:55;6.77;;;3.93;;
8626;SDS011;4351;51.422;6.794;2023-09-07T07:01:39;7.05;;;4.20;;
8626;SDS011;4351;51.422;6.794;2023-09-07T07:06:58;6.87;;;4.43;;
8626;SDS011;4351;51.422;6.794;2023-09-07T07:09:39;6.47;;;4.40;;
8626;SDS011;4351;51.422;6.794;2023-09-07T07:12:09;6.83;;;4.37;;
8626;SDS011;4351;51.422;6.794;2023-09-07T07:14:49;4.93;;;4.10;;
8626;SDS011;4351;51.422;6.794;2023-09-07T07:17:33;7.17;;;4.60;;
8626;SDS011;4351;51.422;6.794;2023-09-07T07:20:17;8.57;;;4.30;;
8626;SDS011;4351;51.422;6.794;2023-09-07T07:22:54;7.17;;;4.50;;
8626;SDS011;4351;51.422;6.794;2023-09-07T07:25:42;7.33;;;4.70;;
8626;SDS011;4351;51.422;6.794;2023-09-07T07:28:28;7.47;;;4.80;;
8626;SDS011;4351;51.422;6.794;2023-09-07T07:31:10;10.87;;;5.10;;
8626;SDS011;4351;51.422;6.794;2023-09-07T07:33:55;6.33;;;4.70;;
8626;SDS011;4351;51.422;6.794;2023-09-07T07:36:43;6.20;;;4.60;;
8626;SDS011;4351;51.422;6.794;2023-09-07T07:39:16;9.30;;;4.70;;
8626;SDS011;4351;51.422;6.794;2023-09-07T07:41:53;5.10;;;4.13;;
8626;SDS011;4351;51.422;6.794;2023-09-07T07:44:34;7.20;;;4.87;;
8626;SDS011;4351;51.422;6.794;2023-09-07T07:47:16;7.13;;;4.57;;
8626;SDS011;4351;51.422;6.794;2023-09-07T07:50:05;6.40;;;4.77;;
8626;SDS011;4351;51.422;6.794;2023-09-07T07:52:51;6.40;;;4.70;;
8626;SDS011;4351;51.422;6.794;2023-09-07T07:55:26;7.70;;;4.70;;
8626;SDS011;4351;51.422;6.794;2023-09-07T07:57:57;7.37;;;4.80;;
8626;SDS011;4351;51.422;6.794;2023-09-07T08:00:33;7.97;;;4.90;;
8626;SDS011;4351;51.422;6.794;2023-09-07T08:03:15;7.35;;;4.50;;
8626;SDS011;4351;51.422;6.794;2023-09-07T08:06:03;7.30;;;4.43;;
8626;SDS011;4351;51.422;6.794;2023-09-07T08:08:39;8.23;;;3.87;;
8626;SDS011;4351;51.422;6.794;2023-09-07T08:11:23;6.73;;;4.20;;
8626;SDS011;4351;51.422;6.794;2023-09-07T08:14:06;6.93;;;4.47;;
8626;SDS011;4351;51.422;6.794;2023-09-07T08:16:46;5.30;;;4.40;;
8626;SDS011;4351;51.422;6.794;2023-09-07T08:19:24;6.90;;;4.20;;
8626;SDS011;4351;51.422;6.794;2023-09-07T08:22:09;5.60;;;4.00;;
8626;SDS011;4351;51.422;6.794;2023-09-07T08:24:53;5.47;;;3.87;;
8626;SDS011;4351;51.422;6.794;2023-09-07T08:27:37;4.30;;;3.90;;
8626;SDS011;4351;51.422;6.794;2023-09-07T08:30:25;5.97;;;4.40;;
8626;SDS011;4351;51.422;6.794;2023-09-07T08:32:59;6.15;;;4.15;;
8626;SDS011;4351;51.422;6.794;2023-09-07T08:35:38;9.40;;;4.40;;
8626;SDS011;4351;51.422;6.794;2023-09-07T08:38:25;4.85;;;4.00;;
8626;SDS011;4351;51.422;6.794;2023-09-07T08:41:07;8.00;;;4.20;;
8626;SDS011;4351;51.422;6.794;2023-09-07T08:43:47;5.43;;;4.10;;
8626;SDS011;4351;51.422;6.794;2023-09-07T08:46:29;4.85;;;4.05;;
8626;SDS011;4351;51.422;6.794;2023-09-07T08:49:15;5.30;;;4.03;;
8626;SDS011;4351;51.422;6.794;2023-09-07T08:52:01;4.73;;;4.30;;
8626;SDS011;4351;51.422;6.794;2023-09-07T08:54:48;6.83;;;4.37;;
8626;SDS011;4351;51.422;6.794;2023-09-07T08:57:35;4.37;;;3.90;;
8626;SDS011;4351;51.422;6.794;2023-09-07T09:00:20;5.30;;;4.10;;
8626;SDS011;4351;51.422;6.794;2023-09-07T09:03:09;5.87;;;3.87;;
8626;SDS011;4351;51.422;6.794;2023-09-07T09:05:52;8.13;;;4.60;;
8626;SDS011;4351;51.422;6.794;2023-09-07T09:08:41;5.87;;;4.10;;
8626;SDS011;4351;51.422;6.794;2023-09-07T09:11:18;5.30;;;4.43;;
8626;SDS011;4351;51.422;6.794;2023-09-07T09:13:53;5.73;;;4.40;;
8626;SDS011;4351;51.422;6.794;2023-09-07T09:16:23;5.97;;;4.43;;
8626;SDS011;4351;51.422;6.794;2023-09-07T09:18:55;5.73;;;4.20;;
8626;SDS011;4351;51.422;6.794;2023-09-07T09:21:35;5.03;;;4.53;;
8626;SDS011;4351;51.422;6.794;2023-09-07T09:24:18;4.93;;;4.23;;
8626;SDS011;4351;51.422;6.794;2023-09-07T09:27:04;4.50;;;4.10;;
8626;SDS011;4351;51.422;6.794;2023-09-07T09:29:46;6.17;;;4.13;;
8626;SDS011;4351;51.422;6.794;2023-09-07T09:32:24;4.37;;;3.97;;
8626;SDS011;4351;51.422;6.794;2023-09-07T09:35:12;5.90;;;4.10;;
8626;SDS011;4351;51.422;6.794;2023-09-07T09:37:53;6.17;;;4.70;;
8626;SDS011;4351;51.422;6.794;2023-09-07T09:40:24;4.20;;;3.77;;
8626;SDS011;4351;51.422;6.794;2023-09-07T09:43:03;6.20;;;4.13;;
8626;SDS011;4351;51.422;6.794;2023-09-07T09:45:43;4.90;;;3.73;;
8626;SDS011;4351;51.422;6.794;2023-09-07T09:48:24;5.80;;;4.23;;
8626;SDS011;4351;51.422;6.794;2023-09-07T09:51:16;6.17;;;4.23;;
8626;SDS011;4351;51.422;6.794;2023-09-07T09:54:08;6.40;;;4.20;;
8626;SDS011;4351;51.422;6.794;2023-09-07T09:56:52;5.47;;;4.00;;
8626;SDS011;4351;51.422;6.794;2023-09-07T09:59:36;7.57;;;4.30;;
8626;SDS011;4351;51.422;6.794;2023-09-07T10:02:16;4.90;;;4.37;;
8626;SDS011;4351;51.422;6.794;2023-09-07T10:05:01;7.87;;;4.80;;
8626;SDS011;4351;51.422;6.794;2023-09-07T10:07:42;7.50;;;4.27;;
8626;SDS011;4351;51.422;6.794;2023-09-07T10:10:26;5.33;;;4.53;;
8626;SDS011;4351;51.422;6.794;2023-09-07T10:13:13;5.13;;;4.10;;
8626;SDS011;4351;51.422;6.794;2023-09-07T10:16:00;5.63;;;4.30;;
8626;SDS011;4351;51.422;6.794;2023-09-07T10:18:44;4.87;;;4.30;;
8626;SDS011;4351;51.422;6.794;2023-09-07T10:21:32;6.13;;;4.30;;
8626;SDS011;4351;51.422;6.794;2023-09-07T10:24:26;8.23;;;5.63;;
8626;SDS011;4351;51.422;6.794;2023-09-07T10:27:12;6.73;;;5.00;;
8626;SDS011;4351;51.422;6.794;2023-09-07T10:29:53;5.30;;;3.93;;
8626;SDS011;4351;51.422;6.794;2023-09-07T10:32:40;5.37;;;4.03;;
8626;SDS011;4351;51.422;6.794;2023-09-07T10:35:22;4.77;;;4.00;;
8626;SDS011;4351;51.422;6.794;2023-09-07T10:38:13;5.37;;;3.60;;
8626;SDS011;4351;51.422;6.794;2023-09-07T10:40:54;5.60;;;4.37;;
8626;SDS011;4351;51.422;6.794;2023-09-07T10:43:35;4.80;;;4.30;;
8626;SDS011;4351;51.422;6.794;2023-09-07T10:46:29;4.80;;;4.20;;
8626;SDS011;4351;51.422;6.794;2023-09-07T10:49:11;6.07;;;4.07;;
8626;SDS011;4351;51.422;6.794;2023-09-07T10:51:42;4.70;;;4.00;;
8626;SDS011;4351;51.422;6.794;2023-09-07T10:54:23;5.50;;;4.10;;
8626;SDS011;4351;51.422;6.794;2023-09-07T10:57:07;4.65;;;4.20;;
8626;SDS011;4351;51.422;6.794;2023-09-07T10:59:47;5.57;;;4.23;;
8626;SDS011;4351;51.422;6.794;2023-09-07T11:02:28;7.40;;;4.30;;
8626;SDS011;4351;51.422;6.794;2023-09-07T11:05:10;4.40;;;3.73;;
8626;SDS011;4351;51.422;6.794;2023-09-07T11:07:52;4.50;;;4.10;;
8626;SDS011;4351;51.422;6.794;2023-09-07T11:10:37;5.20;;;4.00;;
8626;SDS011;4351;51.422;6.794;2023-09-07T11:13:21;6.30;;;4.30;;
8626;SDS011;4351;51.422;6.794;2023-09-07T11:15:56;4.65;;;4.20;;
8626;SDS011;4351;51.422;6.794;2023-09-07T11:18:25;4.90;;;4.40;;
8626;SDS011;4351;51.422;6.794;2023-09-07T11:23:42;6.00;;;4.15;;
8626;SDS011;4351;51.422;6.794;2023-09-07T11:26:20;6.90;;;3.80;;
8626;SDS011;4351;51.422;6.794;2023-09-07T11:31:43;4.35;;;3.85;;
8626;SDS011;4351;51.422;6.794;2023-09-07T11:34:23;5.60;;;3.80;;
8626;SDS011;4351;51.422;6.794;2023-09-07T11:37:05;6.37;;;4.13;;
8626;SDS011;4351;51.422;6.794;2023-09-07T11:39:43;3.90;;;3.60;;
8626;SDS011;4351;51.422;6.794;2023-09-07T11:42:21;6.80;;;4.27;;
8626;SDS011;4351;51.422;6.794;2023-09-07T11:45:06;5.80;;;3.73;;
8626;SDS011;4351;51.422;6.794;2023-09-07T11:47:47;5.63;;;3.73;;
8626;SDS011;4351;51.422;6.794;2023-09-07T11:50:23;5.70;;;3.90;;
8626;SDS011;4351;51.422;6.794;2023-09-07T11:53:01;3.50;;;3.20;;
8626;SDS011;4351;51.422;6.794;2023-09-07T11:55:43;4.23;;;3.67;;
8626;SDS011;4351;51.422;6.794;2023-09-07T11:58:27;6.20;;;3.80;;
8626;SDS011;4351;51.422;6.794;2023-09-07T12:01:09;4.23;;;3.80;;
8626;SDS011;4351;51.422;6.794;2023-09-07T12:03:51;5.20;;;3.80;;
8626;SDS011;4351;51.422;6.794;2023-09-07T12:06:30;3.70;;;3.30;;
8626;SDS011;4351;51.422;6.794;2023-09-07T12:09:18;5.20;;;3.67;;
8626;SDS011;4351;51.422;6.794;2023-09-07T12:12:03;4.97;;;3.60;;
8626;SDS011;4351;51.422;6.794;2023-09-07T12:14:44;6.07;;;3.80;;
8626;SDS011;4351;51.422;6.794;2023-09-07T12:17:22;5.90;;;3.80;;
8626;SDS011;4351;51.422;6.794;2023-09-07T12:19:57;5.90;;;3.67;;
8626;SDS011;4351;51.422;6.794;2023-09-07T12:22:28;6.07;;;3.80;;
8626;SDS011;4351;51.422;6.794;2023-09-07T12:25:05;4.30;;;3.70;;
8626;SDS011;4351;51.422;6.794;2023-09-07T12:27:46;5.77;;;4.20;;
8626;SDS011;4351;51.422;6.794;2023-09-07T12:30:20;3.90;;;3.50;;
8626;SDS011;4351;51.422;6.794;2023-09-07T12:33:01;4.27;;;3.87;;
8626;SDS011;4351;51.422;6.794;2023-09-07T12:35:45;7.00;;;4.30;;
8626;SDS011;4351;51.422;6.794;2023-09-07T12:38:25;5.07;;;4.13;;
8626;SDS011;4351;51.422;6.794;2023-09-07T12:41:05;7.00;;;4.00;;
8626;SDS011;4351;51.422;6.794;2023-09-07T12:43:47;3.90;;;3.50;;
8626;SDS011;4351;51.422;6.794;2023-09-07T12:48:57;4.45;;;4.05;;
8626;SDS011;4351;51.422;6.794;2023-09-07T12:51:38;5.00;;;3.87;;
8626;SDS011;4351;51.422;6.794;2023-09-07T12:54:13;4.75;;;4.15;;
8626;SDS011;4351;51.422;6.794;2023-09-07T12:56:43;6.97;;;4.00;;
8626;SDS011;4351;51.422;6.794;2023-09-07T12:59:21;4.40;;;4.00;;
8626;SDS011;4351;51.422;6.794;2023-09-07T13:02:09;7.00;;;4.10;;
8626;SDS011;4351;51.422;6.794;2023-09-07T13:04:44;6.50;;;4.37;;
8626;SDS011;4351;51.422;6.794;2023-09-07T13:07:12;5.63;;;3.77;;
8626;SDS011;4351;51.422;6.794;2023-09-07T13:09:43;7.33;;;4.43;;
8626;SDS011;4351;51.422;6.794;2023-09-07T13:12:21;8.33;;;4.57;;
8626;SDS011;4351;51.422;6.794;2023-09-07T13:14:58;4.43;;;3.70;;
8626;SDS011;4351;51.422;6.794;2023-09-07T13:17:27;5.23;;;3.93;;
8626;SDS011;4351;51.422;6.794;2023-09-07T13:19:56;5.30;;;4.03;;
8626;SDS011;4351;51.422;6.794;2023-09-07T13:22:30;5.33;;;4.03;;
8626;SDS011;4351;51.422;6.794;2023-09-07T13:25:10;5.77;;;3.93;;
8626;SDS011;4351;51.422;6.794;2023-09-07T13:27:54;5.30;;;4.23;;
8626;SDS011;4351;51.422;6.794;2023-09-07T13:30:44;4.90;;;3.77;;
8626;SDS011;4351;51.422;6.794;2023-09-07T13:33:22;5.53;;;3.90;;
8626;SDS011;4351;51.422;6.794;2023-09-07T13:35:50;4.23;;;3.73;;
8626;SDS011;4351;51.422;6.794;2023-09-07T13:38:19;7.47;;;3.67;;
8626;SDS011;4351;51.422;6.794;2023-09-07T13:40:58;6.13;;;4.27;;
8626;SDS011;4351;51.422;6.794;2023-09-07T13:43:40;5.37;;;3.83;;
8626;SDS011;4351;51.422;6.794;2023-09-07T13:46:25;5.43;;;4.13;;
8626;SDS011;4351;51.422;6.794;2023-09-07T13:48:59;5.67;;;4.30;;
8626;SDS011;4351;51.422;6.794;2023-09-07T13:51:29;4.63;;;4.00;;
8626;SDS011;4351;51.422;6.794;2023-09-07T13:54:12;7.57;;;4.20;;
8626;SDS011;4351;51.422;6.794;2023-09-07T13:56:51;5.87;;;4.70;;
8626;SDS011;4351;51.422;6.794;2023-09-07T13:59:38;6.03;;;4.60;;
8626;SDS011;4351;51.422;6.794;2023-09-07T14:02:22;5.70;;;4.53;;
8626;SDS011;4351;51.422;6.794;2023-09-07T14:05:05;6.70;;;4.83;;
8626;SDS011;4351;51.422;6.794;2023-09-07T14:07:50;5.87;;;4.13;;
8626;SDS011;4351;51.422;6.794;2023-09-07T14:10:19;4.57;;;4.17;;
8626;SDS011;4351;51.422;6.794;2023-09-07T14:12:47;7.33;;;4.27;;
8626;SDS011;4351;51.422;6.794;2023-09-07T14:15:17;4.83;;;4.33;;
8626;SDS011;4351;51.422;6.794;2023-09-07T14:17:56;5.00;;;4.50;;
8626;SDS011;4351;51.422;6.794;2023-09-07T14:20:31;5.73;;;4.33;;
8626;SDS011;4351;51.422;6.794;2023-09-07T14:23:19;5.90;;;4.80;;
8626;SDS011;4351;51.422;6.794;2023-09-07T14:26:05;6.10;;;4.37;;
8626;SDS011;4351;51.422;6.794;2023-09-07T14:28:42;5.83;;;4.73;;
8626;SDS011;4351;51.422;6.794;2023-09-07T14:31:25;7.10;;;4.60;;
8626;SDS011;4351;51.422;6.794;2023-09-07T14:34:09;6.57;;;4.67;;
8626;SDS011;4351;51.422;6.794;2023-09-07T14:36:48;6.33;;;4.70;;
8626;SDS011;4351;51.422;6.794;2023-09-07T14:39:25;5.40;;;4.40;;
8626;SDS011;4351;51.422;6.794;2023-09-07T14:42:03;5.53;;;4.67;;
8626;SDS011;4351;51.422;6.794;2023-09-07T14:44:49;5.93;;;4.33;;
8626;SDS011;4351;51.422;6.794;2023-09-07T14:47:28;6.10;;;4.50;;
8626;SDS011;4351;51.422;6.794;2023-09-07T14:50:09;6.07;;;4.70;;
8626;SDS011;4351;51.422;6.794;2023-09-07T14:52:38;6.07;;;4.57;;
8626;SDS011;4351;51.422;6.794;2023-09-07T14:55:19;5.20;;;4.70;;
8626;SDS011;4351;51.422;6.794;2023-09-07T14:58:04;7.27;;;4.80;;
8626;SDS011;4351;51.422;6.794;2023-09-07T15:00:51;6.53;;;4.70;;
8626;SDS011;4351;51.422;6.794;2023-09-07T15:03:34;5.10;;;4.60;;
8626;SDS011;4351;51.422;6.794;2023-09-07T15:06:26;4.70;;;4.20;;
8626;SDS011;4351;51.422;6.794;2023-09-07T15:09:09;6.57;;;4.90;;
8626;SDS011;4351;51.422;6.794;2023-09-07T15:11:45;5.00;;;4.45;;
8626;SDS011;4351;51.422;6.794;2023-09-07T15:14:24;6.37;;;4.57;;
8626;SDS011;4351;51.422;6.794;2023-09-07T15:17:03;7.47;;;4.43;;
8626;SDS011;4351;51.422;6.794;2023-09-07T15:19:42;5.47;;;4.37;;
8626;SDS011;4351;51.422;6.794;2023-09-07T15:22:22;8.87;;;4.63;;
8626;SDS011;4351;51.422;6.794;2023-09-07T15:25:00;7.50;;;5.10;;
8626;SDS011;4351;51.422;6.794;2023-09-07T15:27:30;6.00;;;4.60;;
8626;SDS011;4351;51.422;6.794;2023-09-07T15:30:01;5.75;;;4.60;;
8626;SDS011;4351;51.422;6.794;2023-09-07T15:32:49;5.67;;;4.50;;
8626;SDS011;4351;51.422;6.794;2023-09-07T15:35:37;8.47;;;4.80;;
8626;SDS011;4351;51.422;6.794;2023-09-07T15:38:17;8.17;;;4.80;;
8626;SDS011;4351;51.422;6.794;2023-09-07T15:41:00;7.23;;;4.70;;
8626;SDS011;4351;51.422;6.794;2023-09-07T15:43:45;6.10;;;4.40;;
8626;SDS011;4351;51.422;6.794;2023-09-07T15:46:31;6.23;;;4.67;;
8626;SDS011;4351;51.422;6.794;2023-09-07T15:51:56;5.85;;;4.55;;
8626;SDS011;4351;51.422;6.794;2023-09-07T15:57:00;5.83;;;4.43;;
8626;SDS011;4351;51.422;6.794;2023-09-07T16:12:49;5.50;;;4.40;;
8626;SDS011;4351;51.422;6.794;2023-09-07T16:15:35;5.43;;;4.50;;
8626;SDS011;4351;51.422;6.794;2023-09-07T16:18:18;6.87;;;4.90;;
8626;SDS011;4351;51.422;6.794;2023-09-07T16:20:53;4.40;;;4.00;;
8626;SDS011;4351;51.422;6.794;2023-09-07T16:23:28;6.65;;;4.65;;
8626;SDS011;4351;51.422;6.794;2023-09-07T16:26:11;7.53;;;5.00;;
8626;SDS011;4351;51.422;6.794;2023-09-07T16:28:54;6.83;;;4.60;;
8626;SDS011;4351;51.422;6.794;2023-09-07T16:31:40;5.17;;;4.67;;
8626;SDS011;4351;51.422;6.794;2023-09-07T16:34:27;6.90;;;5.20;;
8626;SDS011;4351;51.422;6.794;2023-09-07T16:37:11;7.57;;;4.20;;
8626;SDS011;4351;51.422;6.794;2023-09-07T16:39:45;8.83;;;6.60;;
8626;SDS011;4351;51.422;6.794;2023-09-07T16:42:19;6.23;;;5.03;;
8626;SDS011;4351;51.422;6.794;2023-09-07T16:45:01;5.85;;;4.60;;
8626;SDS011;4351;51.422;6.794;2023-09-07T16:47:44;9.40;;;5.40;;
8626;SDS011;4351;51.422;6.794;2023-09-07T16:50:31;7.50;;;4.60;;
8626;SDS011;4351;51.422;6.794;2023-09-07T16:53:03;8.07;;;4.70;;
8626;SDS011;4351;51.422;6.794;2023-09-07T16:55:42;6.60;;;4.90;;
8626;SDS011;4351;51.422;6.794;2023-09-07T16:58:17;7.90;;;4.67;;
8626;SDS011;4351;51.422;6.794;2023-09-07T17:00:57;7.10;;;5.00;;
8626;SDS011;4351;51.422;6.794;2023-09-07T17:03:44;6.47;;;5.07;;
8626;SDS011;4351;51.422;6.794;2023-09-07T17:06:24;5.80;;;5.00;;
8626;SDS011;4351;51.422;6.794;2023-09-07T17:09:02;6.70;;;4.93;;
8626;SDS011;4351;51.422;6.794;2023-09-07T17:11:44;7.30;;;4.97;;
8626;SDS011;4351;51.422;6.794;2023-09-07T17:14:26;7.07;;;4.83;;
8626;SDS011;4351;51.422;6.794;2023-09-07T17:17:01;6.80;;;5.03;;
8626;SDS011;4351;51.422;6.794;2023-09-07T17:19:46;7.10;;;5.13;;
8626;SDS011;4351;51.422;6.794;2023-09-07T17:22:21;7.07;;;5.10;;
8626;SDS011;4351;51.422;6.794;2023-09-07T17:24:51;5.80;;;5.20;;
8626;SDS011;4351;51.422;6.794;2023-09-07T17:27:28;7.30;;;5.20;;
8626;SDS011;4351;51.422;6.794;2023-09-07T17:30:14;10.20;;;5.00;;
8626;SDS011;4351;51.422;6.794;2023-09-07T17:32:51;7.40;;;5.10;;
8626;SDS011;4351;51.422;6.794;2023-09-07T17:35:34;9.53;;;5.70;;
8626;SDS011;4351;51.422;6.794;2023-09-07T17:38:17;7.53;;;5.60;;
8626;SDS011;4351;51.422;6.794;2023-09-07T17:41:00;8.25;;;5.25;;
8626;SDS011;4351;51.422;6.794;2023-09-07T17:43:36;10.07;;;5.43;;
8626;SDS011;4351;51.422;6.794;2023-09-07T17:46:18;6.40;;;5.07;;
8626;SDS011;4351;51.422;6.794;2023-09-07T17:49:01;6.57;;;5.23;;
8626;SDS011;4351;51.422;6.794;2023-09-07T17:51:49;8.83;;;5.50;;
8626;SDS011;4351;51.422;6.794;2023-09-07T17:54:32;10.57;;;6.17;;
8626;SDS011;4351;51.422;6.794;2023-09-07T17:57:16;8.60;;;5.57;;
8626;SDS011;4351;51.422;6.794;2023-09-07T17:59:52;7.77;;;4.97;;
8626;SDS011;4351;51.422;6.794;2023-09-07T18:02:33;7.43;;;5.47;;
8626;SDS011;4351;51.422;6.794;2023-09-07T18:05:16;8.07;;;5.00;;
8626;SDS011;4351;51.422;6.794;2023-09-07T18:08:07;7.00;;;4.97;;
8626;SDS011;4351;51.422;6.794;2023-09-07T18:10:42;6.55;;;5.05;;
8626;SDS011;4351;51.422;6.794;2023-09-07T18:21:05;6.30;;;5.20;;